China Enterprise — 9V2268 — position and weather

sailwx.info

Track history (hours):
 
Tides and Currents Weather Stations Pressure Air Temp Water Temp Dewpoint Dewpoint Depression Visibility Wind Speed Wind Dir Waves Ship Positions

China Enterprise

Last reported at 2018-Apr-28 13:11 UTC. Time now 2018-Jun-24 20:13 UTC.
Position N 41°39' E 141°35'.
Warning: this ship's position is 57 days out of date.

Length 300 m; draft 10.4 m.

Type: Cargo ship. MMSI: 563002200.

Date/timePositionNaut miles runAvg speedWind from/ knotsBaromVisibWave heightAir tempDewpointWater temp
2018-Apr-28 13:11N 41°39' E 141°35'1013.5
2018-Apr-28 12:26N 41°39' E 141°22'613.1
2018-Apr-28 12:00N 41°39' E 141°14'713.9
2018-Apr-28 11:30N 41°38' E 141°05'816.0
2018-Apr-28 11:01N 41°37' E 140°55'715.0
2018-Apr-28 10:30N 41°34' E 140°45'714.6
2018-Apr-28 10:00N 41°30' E 140°38'815.3
2018-Apr-28 09:30N 41°26' E 140°29'815.3
2018-Apr-28 09:00N 41°21' E 140°21'1814.3
2018-Apr-28 07:46N 41°18' E 139°58'414.0
2018-Apr-28 07:29N 41°18' E 139°53'713.8
2018-Apr-28 06:58N 41°17' E 139°43'814.0
2018-Apr-28 06:25N 41°19' E 139°33'614.4
2018-Apr-28 05:59N 41°21' E 139°25'714.2
2018-Apr-28 05:30N 41°23' E 139°17'713.8
2018-Apr-28 05:00N 41°25' E 139°08'  
Track history (hours):
 
Tides and Currents Weather Stations Pressure Air Temp Water Temp Dewpoint Dewpoint Depression Visibility Wind Speed Wind Dir Waves Ship Positions

China Enterprise

Last reported at 2018-Apr-28 13:11 UTC. Time now 2018-Jun-24 20:13 UTC.
Position N 41°39' E 141°35'.
Warning: this ship's position is 57 days out of date.

Length 300 m; draft 10.4 m.

Type: Cargo ship. MMSI: 563002200.

Date/timePositionNaut miles runAvg speedWind from/ knotsBaromVisibWave heightAir tempDewpointWater temp
2018-Apr-28 13:11N 41°39' E 141°35'1013.5
2018-Apr-28 12:26N 41°39' E 141°22'613.1
2018-Apr-28 12:00N 41°39' E 141°14'713.9
2018-Apr-28 11:30N 41°38' E 141°05'816.0
2018-Apr-28 11:01N 41°37' E 140°55'715.0
2018-Apr-28 10:30N 41°34' E 140°45'714.6
2018-Apr-28 10:00N 41°30' E 140°38'815.3
2018-Apr-28 09:30N 41°26' E 140°29'815.3
2018-Apr-28 09:00N 41°21' E 140°21'1814.3
2018-Apr-28 07:46N 41°18' E 139°58'414.0
2018-Apr-28 07:29N 41°18' E 139°53'713.8
2018-Apr-28 06:58N 41°17' E 139°43'814.0
2018-Apr-28 06:25N 41°19' E 139°33'614.4
2018-Apr-28 05:59N 41°21' E 139°25'714.2
2018-Apr-28 05:30N 41°23' E 139°17'713.8
2018-Apr-28 05:00N 41°25' E 139°08'  

Dump ship's entire track history